Time;durP1;ratioP1;P1;durP2;ratioP2;P2;SDS_P1;SDS_P2;PMS_P1;PMS_P2;Temp;Humidity;BMP_temperature;BMP_pressure;BME280_temperature;BME280_humidity;BME280_pressure;Samples;Min_cycle;Max_cycle;Signal;HPM_P1;HPM_P2
2023/06/08 00:00:31;;;;;;;17.87;9.50;;;17.00;99.90;;;;;;4951146;28;20212;-62
2023/06/08 00:03:04;;;;;;;12.73;9.43;;;17.10;99.90;;;;;;4956142;28;20192;-61
2023/06/08 00:05:43;;;;;;;16.27;10.27;;;17.00;99.90;;;;;;4955712;28;20230;-61
2023/06/08 00:08:12;;;;;;;20.43;10.20;;;17.00;99.90;;;;;;4956122;28;20293;-61
2023/06/08 00:10:43;;;;;;;18.13;10.23;;;16.90;99.90;;;;;;4955936;28;20566;-61
2023/06/08 00:13:12;;;;;;;20.50;10.20;;;16.90;99.90;;;;;;4946607;28;20240;-61
2023/06/08 00:15:41;;;;;;;19.60;10.40;;;16.90;99.90;;;;;;4953758;28;20682;-61
2023/06/08 00:18:10;;;;;;;18.37;10.53;;;16.90;99.90;;;;;;4956352;28;20247;-62
2023/06/08 00:20:40;;;;;;;18.97;10.70;;;16.80;99.90;;;;;;4955520;28;20224;-61
2023/06/08 00:23:08;;;;;;;23.13;11.10;;;16.70;99.90;;;;;;4955260;28;20217;-62
2023/06/08 00:25:37;;;;;;;17.10;10.93;;;16.60;99.90;;;;;;4955483;28;20226;-62
2023/06/08 00:28:05;;;;;;;17.47;10.67;;;16.60;99.90;;;;;;4954202;28;20228;-61
2023/06/08 00:30:33;;;;;;;18.93;10.87;;;16.50;99.90;;;;;;4955756;28;20244;-62
2023/06/08 00:33:01;;;;;;;21.10;11.23;;;16.50;99.90;;;;;;4955591;28;20195;-61
2023/06/08 00:35:32;;;;;;;23.37;10.80;;;16.50;99.90;;;;;;4954776;28;20235;-61
2023/06/08 00:38:00;;;;;;;22.43;10.73;;;16.50;99.90;;;;;;4954254;28;20216;-61
2023/06/08 00:40:28;;;;;;;19.43;10.73;;;16.40;99.90;;;;;;4954272;28;20221;-62
2023/06/08 00:43:15;;;;;;;19.50;11.37;;;16.40;99.90;;;;;;4947103;28;20233;-62
2023/06/08 00:46:07;;;;;;;21.63;11.43;;;16.40;99.90;;;;;;4953573;28;20185;-61
2023/06/08 00:48:36;;;;;;;21.30;11.37;;;16.30;99.90;;;;;;4954785;28;20689;-62
2023/06/08 00:51:06;;;;;;;22.30;11.70;;;16.30;99.90;;;;;;4954834;28;20656;-62
2023/06/08 00:53:37;;;;;;;19.20;11.63;;;16.20;99.90;;;;;;4954320;28;20227;-61
2023/06/08 00:56:08;;;;;;;20.53;12.43;;;16.20;99.90;;;;;;4954655;28;20231;-61
2023/06/08 00:58:37;;;;;;;21.23;11.83;;;16.20;99.90;;;;;;4954856;28;20303;-61
2023/06/08 01:01:11;;;;;;;17.00;11.60;;;16.20;99.90;;;;;;4954705;28;20233;-62
2023/06/08 01:03:40;;;;;;;24.13;11.90;;;16.10;99.90;;;;;;4955085;28;20203;-62
2023/06/08 01:06:13;;;;;;;20.47;12.07;;;16.10;99.90;;;;;;4954142;29;20201;-61
2023/06/08 01:08:56;;;;;;;20.07;12.20;;;16.00;99.90;;;;;;4954578;28;20237;-61
2023/06/08 01:11:38;;;;;;;21.87;12.40;;;16.00;99.90;;;;;;4954806;28;20219;-62
2023/06/08 01:14:15;;;;;;;20.73;11.93;;;15.90;99.90;;;;;;4951809;28;20217;-62
2023/06/08 01:16:50;;;;;;;22.00;12.23;;;15.90;99.90;;;;;;4954567;28;20228;-61
2023/06/08 01:19:28;;;;;;;23.77;12.53;;;15.90;99.90;;;;;;4954839;28;20223;-62
2023/06/08 01:22:11;;;;;;;20.80;13.03;;;15.80;99.90;;;;;;4954630;28;20679;-61
2023/06/08 01:24:49;;;;;;;22.60;12.90;;;15.80;99.90;;;;;;4954862;28;20199;-61
2023/06/08 01:27:19;;;;;;;21.33;12.63;;;15.70;99.90;;;;;;4953241;29;20502;-62
2023/06/08 01:29:48;;;;;;;19.53;12.77;;;15.70;99.90;;;;;;4954521;28;20231;-62
2023/06/08 01:32:16;;;;;;;21.47;12.53;;;15.60;99.90;;;;;;4954204;28;20212;-62
2023/06/08 01:34:44;;;;;;;24.93;13.33;;;15.60;99.90;;;;;;4954755;28;20227;-61
2023/06/08 01:37:19;;;;;;;25.30;13.77;;;15.60;99.90;;;;;;4954334;28;20755;-61
2023/06/08 01:39:57;;;;;;;23.07;12.70;;;15.50;99.90;;;;;;4954314;28;20192;-65
2023/06/08 01:42:27;;;;;;;20.20;13.07;;;15.50;99.90;;;;;;4940179;29;20184;-61
2023/06/08 01:45:00;;;;;;;24.67;13.57;;;15.40;99.90;;;;;;4954554;28;20224;-61
2023/06/08 01:47:35;;;;;;;24.97;13.00;;;15.40;99.90;;;;;;4954447;28;20243;-61
2023/06/08 01:50:07;;;;;;;24.77;12.97;;;15.40;99.90;;;;;;4954521;28;20312;-61
2023/06/08 01:52:36;;;;;;;26.30;12.70;;;15.40;99.90;;;;;;4954266;28;20220;-62
2023/06/08 01:55:15;;;;;;;23.30;12.80;;;15.40;99.90;;;;;;4954337;28;20235;-61
2023/06/08 01:57:43;;;;;;;26.63;13.47;;;15.30;99.90;;;;;;4957795;28;20199;-61
2023/06/08 02:00:13;;;;;;;22.57;13.53;;;15.30;99.90;;;;;;4956180;29;20216;-61
2023/06/08 02:02:41;;;;;;;23.70;13.20;;;15.20;99.90;;;;;;4958374;28;20231;-61
2023/06/08 02:05:11;;;;;;;25.40;13.27;;;15.20;99.90;;;;;;4958085;28;20224;-62
2023/06/08 02:07:40;;;;;;;28.57;13.47;;;15.10;99.90;;;;;;4954506;28;20212;-61
2023/06/08 02:10:12;;;;;;;21.17;13.17;;;15.10;99.90;;;;;;4958070;28;20220;-61
2023/06/08 02:12:41;;;;;;;20.30;12.33;;;15.10;99.90;;;;;;4950163;28;20203;-61
2023/06/08 02:15:10;;;;;;;22.77;12.90;;;15.00;99.90;;;;;;4957792;29;20202;-61
2023/06/08 02:17:38;;;;;;;27.50;13.57;;;15.00;99.90;;;;;;4948372;28;20228;-61
2023/06/08 02:20:08;;;;;;;24.93;13.43;;;15.00;99.90;;;;;;4957982;28;20316;-61
2023/06/08 02:22:39;;;;;;;24.30;12.57;;;14.90;99.90;;;;;;4957906;28;20219;-61
2023/06/08 02:25:10;;;;;;;29.10;13.80;;;14.90;99.90;;;;;;4957851;28;20236;-61
2023/06/08 02:27:39;;;;;;;20.20;13.23;;;14.90;99.90;;;;;;4957957;28;20236;-61
2023/06/08 02:30:09;;;;;;;22.30;12.63;;;14.80;99.90;;;;;;4952560;28;20217;-61
2023/06/08 02:32:41;;;;;;;25.53;13.73;;;14.80;99.90;;;;;;4949382;29;20267;-61
2023/06/08 02:35:10;;;;;;;29.17;13.80;;;14.80;99.90;;;;;;4957366;28;20590;-62
2023/06/08 02:37:39;;;;;;;26.70;14.23;;;14.80;99.90;;;;;;4957460;28;20228;-61
2023/06/08 02:40:11;;;;;;;29.83;13.47;;;14.80;99.90;;;;;;4956354;28;20587;-61
2023/06/08 02:42:39;;;;;;;23.13;13.67;;;14.80;99.90;;;;;;4957107;28;20196;-61
2023/06/08 02:45:08;;;;;;;23.63;13.60;;;14.70;99.90;;;;;;4957828;28;20623;-61
2023/06/08 02:47:36;;;;;;;25.20;13.90;;;14.70;99.90;;;;;;4956818;28;20228;-61
2023/06/08 02:50:06;;;;;;;22.00;13.13;;;14.70;99.90;;;;;;4957016;28;20231;-61
2023/06/08 02:52:35;;;;;;;28.43;14.47;;;14.70;99.90;;;;;;4957045;28;20721;-62
2023/06/08 02:55:03;;;;;;;31.30;15.87;;;14.70;99.90;;;;;;4955668;28;20228;-61
2023/06/08 02:57:33;;;;;;;30.07;14.87;;;14.60;99.90;;;;;;4937935;28;20196;-61
2023/06/08 03:03:43;;;;;;;24.60;14.10;;;14.50;99.90;;;;;;4956532;29;20239;-61
2023/06/08 03:06:53;;;;;;;27.63;14.50;;;14.50;99.90;;;;;;4957553;28;20595;-61
2023/06/08 03:09:22;;;;;;;26.97;14.03;;;14.50;99.90;;;;;;4943348;29;20205;-61
2023/06/08 03:11:51;;;;;;;26.90;15.00;;;14.50;99.90;;;;;;4956893;28;20307;-61
2023/06/08 03:14:20;;;;;;;24.20;14.87;;;14.50;99.90;;;;;;4956776;28;20223;-61
2023/06/08 03:16:49;;;;;;;26.00;15.53;;;14.40;99.90;;;;;;4956897;28;20224;-61
2023/06/08 03:19:17;;;;;;;27.30;15.43;;;14.40;99.90;;;;;;4956373;28;20220;-61
2023/06/08 03:21:49;;;;;;;25.43;14.90;;;14.40;99.90;;;;;;4955421;28;20208;-61
2023/06/08 03:24:20;;;;;;;32.73;15.67;;;14.40;99.90;;;;;;4957353;28;20192;-61
2023/06/08 03:26:49;;;;;;;29.07;15.53;;;14.30;99.90;;;;;;4956806;28;20710;-61
2023/06/08 03:29:17;;;;;;;28.77;15.87;;;14.30;99.90;;;;;;4956547;28;20310;-61
2023/06/08 03:31:47;;;;;;;26.37;15.10;;;14.30;99.90;;;;;;4956629;28;20238;-61
2023/06/08 03:34:16;;;;;;;25.47;15.20;;;14.20;99.90;;;;;;4956860;28;20224;-61
2023/06/08 03:36:44;;;;;;;29.23;16.47;;;14.20;99.90;;;;;;4951832;28;20642;-61
2023/06/08 03:39:13;;;;;;;28.70;14.60;;;14.20;99.90;;;;;;4956892;28;20192;-61
2023/06/08 03:41:41;;;;;;;34.33;15.80;;;14.10;99.90;;;;;;4956392;28;20225;-62
2023/06/08 03:44:10;;;;;;;25.57;15.47;;;14.10;99.90;;;;;;4954569;28;20234;-62
2023/06/08 03:46:38;;;;;;;29.97;15.43;;;14.10;99.90;;;;;;4956620;28;20569;-60
2023/06/08 03:49:08;;;;;;;29.07;15.80;;;14.10;99.90;;;;;;4955858;28;20227;-61
2023/06/08 03:51:37;;;;;;;24.03;14.70;;;14.10;99.90;;;;;;4956198;28;20188;-61
2023/06/08 03:54:05;;;;;;;26.77;15.70;;;14.10;99.90;;;;;;4956209;28;20656;-61
2023/06/08 03:56:34;;;;;;;27.60;16.00;;;14.10;99.90;;;;;;4955681;28;20311;-61
2023/06/08 03:59:02;;;;;;;25.37;15.63;;;14.10;99.90;;;;;;4947826;28;20221;-61
2023/06/08 04:01:31;;;;;;;25.23;14.50;;;14.10;99.90;;;;;;4955690;28;20625;-61
2023/06/08 04:03:59;;;;;;;27.77;15.20;;;14.10;99.90;;;;;;4956134;28;20718;-61
2023/06/08 04:06:33;;;;;;;26.60;15.47;;;14.10;99.90;;;;;;4956446;28;20196;-62
2023/06/08 04:09:03;;;;;;;25.73;14.97;;;14.10;99.90;;;;;;4948050;29;20231;-61
2023/06/08 04:11:31;;;;;;;29.07;16.03;;;14.10;99.90;;;;;;4955661;28;20219;-61
2023/06/08 04:13:59;;;;;;;25.93;15.30;;;14.10;99.90;;;;;;4955620;28;20231;-61
2023/06/08 04:16:28;;;;;;;29.00;15.13;;;14.10;99.90;;;;;;4953307;28;20217;-61
2023/06/08 04:18:56;;;;;;;27.40;16.23;;;14.10;99.90;;;;;;4955260;28;20296;-61
2023/06/08 04:21:25;;;;;;;25.33;15.63;;;14.10;99.90;;;;;;4955863;28;20609;-62
2023/06/08 04:23:55;;;;;;;27.70;15.17;;;14.10;99.90;;;;;;4955563;28;20315;-61
2023/06/08 04:26:24;;;;;;;32.53;16.00;;;14.10;99.90;;;;;;4955471;28;20230;-61
2023/06/08 04:28:52;;;;;;;29.43;15.77;;;14.10;99.90;;;;;;4955572;28;20250;-61
2023/06/08 04:31:21;;;;;;;28.40;15.23;;;14.10;99.90;;;;;;4955749;28;20721;-61
2023/06/08 04:33:49;;;;;;;25.77;14.77;;;14.10;99.90;;;;;;4955927;28;20275;-61
2023/06/08 04:36:17;;;;;;;25.73;15.33;;;14.10;99.90;;;;;;4955779;28;20200;-61
2023/06/08 04:38:46;;;;;;;30.70;15.27;;;14.20;99.90;;;;;;4955132;28;20243;-61
2023/06/08 04:41:18;;;;;;;27.07;14.00;;;14.20;99.90;;;;;;4954988;28;20579;-61
2023/06/08 04:43:49;;;;;;;24.37;14.77;;;14.20;99.90;;;;;;4955204;28;20298;-61
2023/06/08 04:46:19;;;;;;;25.67;14.53;;;14.30;99.90;;;;;;4955291;28;20240;-61
2023/06/08 04:48:48;;;;;;;26.33;15.07;;;14.30;99.90;;;;;;4955279;28;20228;-61
2023/06/08 04:51:16;;;;;;;34.17;15.50;;;14.30;99.90;;;;;;4955008;28;20612;-61
2023/06/08 04:53:45;;;;;;;24.03;15.00;;;14.40;99.90;;;;;;4955335;28;20228;-61
2023/06/08 04:56:18;;;;;;;29.30;15.30;;;14.40;99.90;;;;;;4950392;28;20220;-61
2023/06/08 04:58:47;;;;;;;26.13;14.60;;;14.50;99.90;;;;;;4954715;28;20218;-61
2023/06/08 05:01:16;;;;;;;23.70;14.27;;;14.50;99.90;;;;;;4954860;28;20228;-61
2023/06/08 05:03:46;;;;;;;26.63;14.73;;;14.60;99.90;;;;;;4954915;28;20659;-61
2023/06/08 05:06:15;;;;;;;25.87;14.83;;;14.60;99.90;;;;;;4955424;28;20698;-61
2023/06/08 05:08:43;;;;;;;27.73;15.43;;;14.60;99.90;;;;;;4955091;28;20583;-61
2023/06/08 05:11:13;;;;;;;28.77;15.13;;;14.70;99.90;;;;;;4954948;28;20231;-61
2023/06/08 05:13:42;;;;;;;28.43;14.57;;;14.70;99.90;;;;;;4954447;28;20699;-61
2023/06/08 05:16:11;;;;;;;29.50;14.87;;;14.70;99.90;;;;;;4954995;28;20721;-61
2023/06/08 05:18:39;;;;;;;31.83;15.90;;;14.70;99.90;;;;;;4955230;28;20504;-61
2023/06/08 05:21:08;;;;;;;28.83;14.73;;;14.80;99.90;;;;;;4955404;28;20222;-61
2023/06/08 05:23:36;;;;;;;25.90;14.40;;;14.90;99.90;;;;;;4954748;28;20224;-61
2023/06/08 05:26:04;;;;;;;26.43;14.60;;;14.90;99.90;;;;;;4948692;28;20250;-61
2023/06/08 05:28:33;;;;;;;25.33;13.93;;;15.00;99.90;;;;;;4946674;28;20227;-61
2023/06/08 05:31:02;;;;;;;28.67;15.47;;;15.10;99.90;;;;;;4954956;28;20228;-61
2023/06/08 05:33:31;;;;;;;28.80;15.00;;;15.20;99.90;;;;;;4958363;28;20583;-61
2023/06/08 05:35:59;;;;;;;24.77;14.53;;;15.30;99.90;;;;;;4958849;28;20206;-61
2023/06/08 05:38:32;;;;;;;26.97;14.67;;;15.30;99.90;;;;;;4954033;28;20221;-61
2023/06/08 05:41:00;;;;;;;27.30;14.00;;;15.40;99.90;;;;;;4952932;28;20229;-61
2023/06/08 05:43:29;;;;;;;26.73;15.07;;;15.40;99.90;;;;;;4958710;28;20224;-62
2023/06/08 05:45:57;;;;;;;27.90;14.33;;;15.50;99.90;;;;;;4958395;28;20231;-61
2023/06/08 05:48:27;;;;;;;27.90;14.53;;;15.60;99.90;;;;;;4957696;29;20231;-61
2023/06/08 05:50:55;;;;;;;24.30;14.97;;;15.60;99.90;;;;;;4958088;28;20231;-62
2023/06/08 05:53:24;;;;;;;22.97;13.40;;;15.70;99.90;;;;;;4958448;28;20236;-61
2023/06/08 05:55:52;;;;;;;24.10;14.83;;;15.80;99.90;;;;;;4955143;28;20237;-61
2023/06/08 05:58:21;;;;;;;24.60;13.60;;;15.90;99.90;;;;;;4946157;28;20232;-61
2023/06/08 06:00:58;;;;;;;25.07;13.90;;;15.90;99.90;;;;;;4953877;28;20216;-61
2023/06/08 06:03:28;;;;;;;26.60;13.77;;;16.00;99.90;;;;;;4956428;28;20652;-61
2023/06/08 06:05:58;;;;;;;24.83;15.23;;;16.00;99.90;;;;;;4958126;28;20224;-61
2023/06/08 06:30:32;;;;;;;26.40;14.33;;;16.50;99.90;;;;;;4957354;28;20634;-61
2023/06/08 06:33:01;;;;;;;27.27;14.23;;;16.60;99.90;;;;;;4956363;29;20192;-61
2023/06/08 06:35:29;;;;;;;23.27;13.97;;;16.70;99.90;;;;;;4957813;28;20223;-61
2023/06/08 06:37:58;;;;;;;23.47;13.40;;;16.80;99.90;;;;;;4957339;28;20250;-61
2023/06/08 06:40:26;;;;;;;21.30;13.07;;;16.90;99.90;;;;;;4955645;28;20230;-61
2023/06/08 06:42:55;;;;;;;22.00;13.87;;;16.80;99.90;;;;;;4954449;28;20235;-61
2023/06/08 06:45:23;;;;;;;22.70;13.27;;;16.80;99.90;;;;;;4957951;28;20204;-61
2023/06/08 06:47:53;;;;;;;26.00;13.93;;;16.90;99.90;;;;;;4956927;28;20235;-61
2023/06/08 06:50:21;;;;;;;29.43;14.23;;;17.00;99.90;;;;;;4955767;28;20234;-61
2023/06/08 06:52:49;;;;;;;25.07;13.27;;;17.00;99.90;;;;;;4950793;28;20219;-61
2023/06/08 06:55:18;;;;;;;26.33;14.00;;;17.10;99.90;;;;;;4938335;28;20225;-61
2023/06/08 06:57:48;;;;;;;24.53;13.90;;;17.10;99.90;;;;;;4938428;28;20236;-60
2023/06/08 07:00:17;;;;;;;24.00;14.13;;;17.20;99.90;;;;;;4955291;29;20248;-60
2023/06/08 07:02:46;;;;;;;26.20;12.97;;;17.30;99.90;;;;;;4957003;28;20218;-60
2023/06/08 07:05:15;;;;;;;26.67;13.57;;;17.40;99.90;;;;;;4957008;28;20301;-61
2023/06/08 07:07:44;;;;;;;23.47;12.67;;;17.50;99.90;;;;;;4957091;28;20226;-60
2023/06/08 07:10:12;;;;;;;23.23;13.77;;;17.50;99.90;;;;;;4955634;28;20251;-61
2023/06/08 07:12:41;;;;;;;22.17;13.10;;;17.70;99.90;;;;;;4957106;28;20194;-61
2023/06/08 07:15:10;;;;;;;23.03;13.30;;;17.70;99.90;;;;;;4957497;28;20211;-61
2023/06/08 07:17:39;;;;;;;29.60;14.27;;;17.80;99.90;;;;;;4957045;28;20252;-61
2023/06/08 07:20:08;;;;;;;19.57;13.33;;;17.80;99.90;;;;;;4954420;28;20621;-61
2023/06/08 07:22:39;;;;;;;24.07;13.10;;;17.90;99.90;;;;;;4949660;28;20635;-61
2023/06/08 07:25:28;;;;;;;26.53;13.27;;;18.10;99.90;;;;;;4953708;28;20821;-61
2023/06/08 07:28:16;;;;;;;18.87;13.23;;;18.20;99.90;;;;;;4956584;28;20259;-61
2023/06/08 07:30:45;;;;;;;19.13;12.90;;;18.40;99.90;;;;;;4947561;28;20227;-61
2023/06/08 07:33:13;;;;;;;24.33;13.60;;;18.40;99.90;;;;;;4956348;28;20292;-60
2023/06/08 07:35:42;;;;;;;20.67;13.07;;;18.50;99.90;;;;;;4949549;28;20241;-60
2023/06/08 07:38:16;;;;;;;23.53;12.93;;;18.60;99.90;;;;;;4952867;28;20279;-60
2023/06/08 07:40:45;;;;;;;22.77;13.23;;;18.70;99.90;;;;;;4956273;28;20220;-60
2023/06/08 07:43:13;;;;;;;21.37;12.97;;;18.80;99.90;;;;;;4956378;28;20251;-61
2023/06/08 07:45:41;;;;;;;20.83;12.83;;;19.00;99.90;;;;;;4948656;28;20197;-61
2023/06/08 07:48:10;;;;;;;25.10;14.07;;;19.10;99.90;;;;;;4956208;28;20246;-61
2023/06/08 07:50:38;;;;;;;32.33;14.30;;;19.20;99.90;;;;;;4956243;28;20219;-61
2023/06/08 07:53:06;;;;;;;25.43;13.87;;;19.10;99.90;;;;;;4956253;28;20231;-61
2023/06/08 07:55:36;;;;;;;25.20;13.17;;;19.20;99.90;;;;;;4953149;28;20699;-61
2023/06/08 07:58:05;;;;;;;23.60;13.87;;;19.40;99.90;;;;;;4956140;28;20671;-60
2023/06/08 08:00:35;;;;;;;26.93;13.93;;;19.40;99.90;;;;;;4956095;28;20537;-60
2023/06/08 08:03:04;;;;;;;25.30;13.13;;;19.50;99.90;;;;;;4954890;29;20291;-60
2023/06/08 08:05:33;;;;;;;25.80;12.93;;;19.60;99.90;;;;;;4936738;28;20658;-60
2023/06/08 08:08:01;;;;;;;22.53;13.30;;;19.80;99.90;;;;;;4947187;28;20711;-60
2023/06/08 08:10:29;;;;;;;23.40;12.13;;;19.90;99.90;;;;;;4955361;28;20563;-60
2023/06/08 08:12:59;;;;;;;18.03;12.10;;;20.10;99.90;;;;;;4955803;28;20887;-60
2023/06/08 08:15:27;;;;;;;24.93;14.03;;;20.30;99.90;;;;;;4955986;28;20196;-60
2023/06/08 08:17:56;;;;;;;20.00;12.37;;;20.40;99.90;;;;;;4967154;28;20231;-60
2023/06/08 08:20:24;;;;;;;22.67;12.73;;;20.50;99.90;;;;;;4975230;28;20634;-60
2023/06/08 08:22:52;;;;;;;20.53;12.70;;;20.60;99.90;;;;;;4962787;28;20234;-60
2023/06/08 08:25:21;;;;;;;26.90;12.77;;;20.70;99.90;;;;;;4955503;28;20244;-61
2023/06/08 08:27:50;;;;;;;23.60;12.73;;;20.80;99.90;;;;;;4954583;28;20193;-60
2023/06/08 08:30:20;;;;;;;18.80;12.73;;;21.00;99.90;;;;;;4956053;28;20201;-60
2023/06/08 08:32:49;;;;;;;22.33;12.77;;;21.00;99.90;;;;;;4955269;28;20703;-61
2023/06/08 08:35:17;;;;;;;20.77;12.50;;;21.10;99.90;;;;;;4955392;28;20316;-60
2023/06/08 08:37:45;;;;;;;24.37;12.83;;;21.20;99.90;;;;;;4955253;28;20234;-60
2023/06/08 08:40:14;;;;;;;30.80;13.43;;;21.20;99.90;;;;;;4955535;28;20255;-60
2023/06/08 08:42:46;;;;;;;24.20;13.03;;;21.30;99.90;;;;;;4955394;28;20209;-60
2023/06/08 08:45:17;;;;;;;22.90;12.63;;;21.40;99.90;;;;;;4955579;28;20213;-60
2023/06/08 08:47:48;;;;;;;18.60;13.13;;;21.60;99.90;;;;;;4954783;28;20239;-60
2023/06/08 08:50:17;;;;;;;20.43;11.40;;;21.80;99.90;;;;;;4954902;28;20231;-60
2023/06/08 08:52:48;;;;;;;22.70;13.23;;;21.70;99.90;;;;;;4954860;28;20250;-59
2023/06/08 08:55:16;;;;;;;22.83;12.17;;;21.70;99.90;;;;;;4939256;28;20702;-60
2023/06/08 08:58:02;;;;;;;21.40;12.80;;;21.80;99.90;;;;;;4948653;28;20237;-60
2023/06/08 09:00:31;;;;;;;18.53;11.43;;;22.10;99.90;;;;;;4955031;28;20242;-60
2023/06/08 09:03:02;;;;;;;23.50;12.87;;;22.30;99.90;;;;;;4954852;28;20230;-61
2023/06/08 09:05:30;;;;;;;20.87;12.00;;;22.50;99.90;;;;;;4954790;28;20297;-60
2023/06/08 09:08:19;;;;;;;23.27;12.43;;;22.40;99.90;;;;;;4954449;28;20373;-60
2023/06/08 09:14:57;;;;;;;19.93;11.97;;;22.80;99.90;;;;;;4947098;28;20343;-61
2023/06/08 09:17:37;;;;;;;18.03;12.17;;;23.00;99.90;;;;;;4954228;28;20786;-61
2023/06/08 09:20:10;;;;;;;18.47;12.20;;;23.10;99.90;;;;;;4955050;28;20219;-61
2023/06/08 09:22:39;;;;;;;20.90;13.20;;;23.30;99.90;;;;;;4954933;28;20238;-61
2023/06/08 09:25:09;;;;;;;20.47;12.53;;;23.30;99.90;;;;;;4955190;28;20224;-60
2023/06/08 09:27:38;;;;;;;25.10;12.40;;;23.70;99.90;;;;;;4954650;28;20192;-61
2023/06/08 09:30:24;;;;;;;23.57;13.43;;;23.80;99.90;;;;;;4953698;28;20203;-61
2023/06/08 09:32:53;;;;;;;20.90;11.97;;;23.90;99.90;;;;;;4954661;28;20270;-60
2023/06/08 09:35:26;;;;;;;24.23;13.10;;;24.10;99.90;;;;;;4954576;28;20271;-61
2023/06/08 09:37:54;;;;;;;20.37;12.80;;;24.30;99.90;;;;;;4954452;28;20599;-61
2023/06/08 09:40:23;;;;;;;21.10;12.47;;;24.60;99.90;;;;;;4954544;28;20232;-60
2023/06/08 09:42:53;;;;;;;20.73;13.03;;;24.80;99.90;;;;;;4954592;28;20236;-61
2023/06/08 09:45:22;;;;;;;22.60;13.63;;;25.00;99.90;;;;;;4954977;28;20208;-61
2023/06/08 09:47:50;;;;;;;22.23;12.10;;;25.00;99.90;;;;;;4954244;28;20722;-61
2023/06/08 09:50:19;;;;;;;20.55;12.68;;;25.00;99.90;;;;;;4954135;28;20216;-61
2023/06/08 09:52:50;;;;;;;17.98;12.27;;;25.30;99.90;;;;;;4954006;28;20226;-61
2023/06/08 09:55:21;;;;;;;21.92;12.88;;;25.40;99.90;;;;;;4954800;28;20236;-62
2023/06/08 09:57:52;;;;;;;19.85;11.73;;;25.30;99.90;;;;;;4954754;28;20221;-61
2023/06/08 10:00:25;;;;;;;21.55;12.77;;;25.30;99.90;;;;;;4954960;28;20204;-61
2023/06/08 10:03:10;;;;;;;20.13;12.57;;;25.40;99.90;;;;;;4954174;28;20227;-61
2023/06/08 10:05:46;;;;;;;18.33;11.95;;;25.60;99.90;;;;;;4954320;28;20215;-62
2023/06/08 10:08:20;;;;;;;17.95;12.07;;;25.90;99.90;;;;;;4954187;28;20226;-61
2023/06/08 10:10:49;;;;;;;19.50;12.00;;;25.80;99.90;;;;;;4954349;28;20588;-62
2023/06/08 10:13:18;;;;;;;21.55;11.98;;;25.90;99.90;;;;;;4954367;28;20314;-61
2023/06/08 10:15:47;;;;;;;17.15;11.52;;;26.10;99.90;;;;;;4954092;28;20188;-61
2023/06/08 10:18:16;;;;;;;22.95;11.80;;;26.30;99.90;;;;;;4957163;28;20189;-61
2023/06/08 10:20:45;;;;;;;18.83;11.00;;;26.50;99.90;;;;;;4957397;28;20216;-63
2023/06/08 10:23:14;;;;;;;15.85;11.05;;;26.60;99.90;;;;;;4944527;28;20240;-61
2023/06/08 10:25:45;;;;;;;23.58;12.30;;;27.20;99.90;;;;;;4948260;28;20619;-61
2023/06/08 10:28:20;;;;;;;19.40;12.30;;;26.90;99.90;;;;;;4944690;28;20231;-62
2023/06/08 10:30:48;;;;;;;19.90;12.57;;;26.80;99.90;;;;;;4957889;28;20207;-62
2023/06/08 10:33:19;;;;;;;20.77;12.23;;;26.80;99.90;;;;;;4958466;28;20215;-62
2023/06/08 10:36:06;;;;;;;15.65;11.18;;;26.70;99.90;;;;;;4957658;28;20224;-61
2023/06/08 10:38:37;;;;;;;17.17;11.77;;;26.80;99.90;;;;;;4952630;28;20254;-59
2023/06/08 10:41:08;;;;;;;18.27;11.48;;;27.10;99.90;;;;;;4957403;28;20279;-63
2023/06/08 10:43:36;;;;;;;19.63;11.70;;;27.10;99.90;;;;;;4957452;28;20785;-62
2023/06/08 10:46:42;;;;;;;18.38;11.27;;;27.00;99.90;;;;;;4955821;28;20330;-61
2023/06/08 10:49:11;;;;;;;16.80;11.57;;;27.20;99.90;;;;;;4956636;28;20231;-62
2023/06/08 10:51:44;;;;;;;18.75;11.50;;;27.20;99.90;;;;;;4956694;28;20208;-61
2023/06/08 10:54:22;;;;;;;16.10;10.73;;;27.50;99.90;;;;;;4957201;28;20196;-62
2023/06/08 10:56:55;;;;;;;12.45;9.70;;;27.80;99.90;;;;;;4951654;28;20241;-62
2023/06/08 10:59:42;;;;;;;14.57;9.68;;;27.90;99.90;;;;;;4956645;28;20226;-61
2023/06/08 11:02:11;;;;;;;19.50;11.85;;;27.80;99.90;;;;;;4956991;28;20226;-61
2023/06/08 11:04:40;;;;;;;16.77;11.90;;;27.50;99.90;;;;;;4955769;28;20249;-61
2023/06/08 11:07:27;;;;;;;15.88;11.45;;;27.20;99.90;;;;;;4956604;28;20622;-61
2023/06/08 11:10:02;;;;;;;18.17;12.93;;;27.30;99.90;;;;;;4955385;28;20310;-61
2023/06/08 11:12:32;;;;;;;19.50;12.45;;;27.10;99.90;;;;;;4951335;29;20241;-61
2023/06/08 11:15:00;;;;;;;21.30;11.60;;;27.10;99.90;;;;;;4956330;29;20244;-61
2023/06/08 11:17:28;;;;;;;18.88;12.18;;;27.20;99.90;;;;;;4956594;28;20232;-61
2023/06/08 11:20:35;;;;;;;22.63;11.93;;;27.20;99.90;;;;;;4956926;28;20225;-61
2023/06/08 11:23:07;;;;;;;17.65;11.50;;;27.30;99.90;;;;;;4956331;28;20231;-61
2023/06/08 11:25:35;;;;;;;18.63;11.15;;;27.10;99.90;;;;;;4956007;28;20235;-61
2023/06/08 11:28:07;;;;;;;18.00;12.30;;;27.20;99.90;;;;;;4952168;28;20233;-62
2023/06/08 11:30:35;;;;;;;18.10;11.18;;;27.30;99.90;;;;;;4950413;28;20261;-61
2023/06/08 11:33:25;;;;;;;15.30;9.77;;;27.30;99.90;;;;;;4955950;28;20200;-60
2023/06/08 11:35:54;;;;;;;19.00;11.18;;;27.60;99.90;;;;;;4955803;28;20223;-61
2023/06/08 11:38:27;;;;;;;14.50;10.50;;;27.80;99.90;;;;;;4955990;28;20229;-61
2023/06/08 11:40:58;;;;;;;16.83;11.20;;;27.80;99.90;;;;;;4955736;28;20596;-61
2023/06/08 11:43:28;;;;;;;16.40;10.73;;;27.70;99.90;;;;;;4951963;28;20224;-61
2023/06/08 11:45:58;;;;;;;17.02;10.20;;;27.80;99.90;;;;;;4956047;28;20248;-61
2023/06/08 11:48:26;;;;;;;14.13;10.68;;;27.90;99.90;;;;;;4956368;28;20260;-62
2023/06/08 11:50:55;;;;;;;20.33;10.02;;;27.80;99.90;;;;;;4948092;28;20303;-61
2023/06/08 11:53:23;;;;;;;12.05;9.45;;;27.70;99.90;;;;;;4955689;28;20247;-61
2023/06/08 11:59:39;;;;;;;12.07;9.32;;;27.80;99.90;;;;;;4947671;28;20252;-61
2023/06/08 12:02:09;;;;;;;12.80;10.60;;;27.90;99.90;;;;;;4955496;28;20227;-61
2023/06/08 12:04:38;;;;;;;16.30;10.52;;;27.80;99.90;;;;;;4955184;28;20236;-61
2023/06/08 12:07:10;;;;;;;19.00;10.48;;;27.80;99.90;;;;;;4953492;28;20231;-61
2023/06/08 12:09:40;;;;;;;16.98;9.52;;;27.80;99.90;;;;;;4955457;28;20201;-61
2023/06/08 12:12:10;;;;;;;17.13;8.50;;;27.70;99.90;;;;;;4955904;28;20539;-61
2023/06/08 12:14:45;;;;;;;12.80;9.75;;;27.80;99.90;;;;;;4955288;28;20630;-61
2023/06/08 12:17:15;;;;;;;14.07;8.90;;;27.80;99.90;;;;;;4955020;28;20236;-62
2023/06/08 12:19:44;;;;;;;16.80;9.00;;;27.80;99.90;;;;;;4955398;28;20804;-62
2023/06/08 12:22:14;;;;;;;9.97;7.03;;;28.00;99.90;;;;;;4936618;28;20230;-60
2023/06/08 12:24:43;;;;;;;11.00;9.05;;;28.00;99.90;;;;;;4946373;28;20228;-61
2023/06/08 12:27:11;;;;;;;12.20;8.43;;;28.00;99.90;;;;;;4956008;28;20310;-61
2023/06/08 12:29:41;;;;;;;14.93;9.47;;;27.80;99.90;;;;;;4955404;28;20584;-61
2023/06/08 12:32:12;;;;;;;17.23;8.53;;;27.70;99.90;;;;;;4955587;28;20221;-61
2023/06/08 12:34:40;;;;;;;15.77;8.97;;;27.50;99.90;;;;;;4955540;28;20722;-60
2023/06/08 12:37:09;;;;;;;11.53;8.47;;;27.60;99.90;;;;;;4954949;28;20224;-62
2023/06/08 12:39:38;;;;;;;11.63;7.77;;;27.70;99.90;;;;;;4953228;28;20200;-60
2023/06/08 12:42:07;;;;;;;10.35;7.30;;;27.60;99.90;;;;;;4955919;28;20199;-61
2023/06/08 12:44:35;;;;;;;14.60;7.90;;;27.80;99.90;;;;;;4955381;28;20626;-61
2023/06/08 12:47:04;;;;;;;12.80;7.60;;;27.90;99.90;;;;;;4954854;28;20280;-61
2023/06/08 12:49:34;;;;;;;21.55;6.60;;;27.50;99.90;;;;;;4955372;28;20224;-61
2023/06/08 12:52:03;;;;;;;8.80;6.63;;;27.60;99.90;;;;;;4955489;28;20647;-61
2023/06/08 12:54:32;;;;;;;11.97;5.63;;;27.90;99.90;;;;;;4955439;28;20222;-61
2023/06/08 12:57:01;;;;;;;6.70;6.10;;;28.10;99.90;;;;;;4955558;28;20682;-61
2023/06/08 12:59:30;;;;;;;9.83;5.83;;;28.20;99.90;;;;;;4954942;28;20227;-62
2023/06/08 13:01:59;;;;;;;7.47;5.67;;;28.00;99.90;;;;;;4954789;28;20220;-62
2023/06/08 13:04:27;;;;;;;8.30;5.33;;;28.00;99.90;;;;;;4954990;28;20249;-62
2023/06/08 13:06:59;;;;;;;8.90;6.27;;;28.10;99.90;;;;;;4955223;28;20232;-61
2023/06/08 13:09:27;;;;;;;11.00;6.40;;;27.70;99.90;;;;;;4955442;28;20690;-62
2023/06/08 13:12:33;;;;;;;12.70;5.97;;;27.90;99.90;;;;;;4954845;28;20725;-61
2023/06/08 13:15:01;;;;;;;11.53;6.00;;;28.10;99.90;;;;;;4954362;28;20231;-61
2023/06/08 13:17:30;;;;;;;7.07;6.03;;;28.40;99.90;;;;;;4939459;28;20216;-61
2023/06/08 13:19:59;;;;;;;6.33;5.63;;;28.70;99.90;;;;;;4954546;28;20237;-61